GLD166 SNQX-SNSG
Flight info
| Callsign | GLD166 |
|---|---|
| Flight time | 1h 17m |
| Altitude | 6500 |
| Route | 0519S03856W 0542S03859W 0542S03900W 0615S03858W 0729S03860W 0750S03906W |
| Aircraft | C182/M-SDFGIRY/S |
Departure
| Time | 2026-04-16 15:22 |
|---|---|
| Airport | Quixadá Airport (SNQX) |
Arrival
| Time | 2026-04-16 16:39 |
|---|---|
| Airport | Salgueiro Airport (SNSG) |
| Time | Latitude | Longitude | Altitude | Speed | Heading |
|---|---|---|---|---|---|
| 2026-04-16 15:19 | -4.97903 | -38.98977 | 742 ft | 0 kts | 23° |
| 2026-04-16 15:20 | -4.97901 | -38.98976 | 743 ft | 3 kts | 24° |
| 2026-04-16 15:20 | -4.97878 | -38.98965 | 737 ft | 0 kts | 15° |
| 2026-04-16 15:20 | -4.97848 | -38.98966 | 740 ft | 12 kts | 294° |
| 2026-04-16 15:21 | -4.97815 | -38.99084 | 738 ft | 13 kts | 314° |
| 2026-04-16 15:21 | -4.97837 | -38.98952 | 740 ft | 43 kts | 111° |
| 2026-04-16 15:21 | -4.97977 | -38.98546 | 790 ft | 73 kts | 111° |
| 2026-04-16 15:21 | -4.98109 | -38.98046 | 1006 ft | 80 kts | 106° |
| 2026-04-16 15:22 | -4.97970 | -38.97465 | 1253 ft | 97 kts | 56° |
| 2026-04-16 15:22 | -4.97345 | -38.97323 | 1555 ft | 110 kts | 335° |
| 2026-04-16 15:22 | -4.97113 | -38.98021 | 1831 ft | 107 kts | 241° |
| 2026-04-16 15:22 | -4.97576 | -38.98447 | 2288 ft | 92 kts | 203° |
| 2026-04-16 15:23 | -4.98089 | -38.98991 | 2373 ft | 119 kts | 222° |
| 2026-04-16 15:23 | -4.98910 | -38.99258 | 2472 ft | 133 kts | 180° |
| 2026-04-16 15:23 | -4.99846 | -38.99245 | 2596 ft | 137 kts | 171° |
| 2026-04-16 15:23 | -5.00785 | -38.99102 | 2722 ft | 136 kts | 165° |
| 2026-04-16 15:24 | -5.01713 | -38.98891 | 2853 ft | 138 kts | 165° |
| 2026-04-16 15:24 | -5.02637 | -38.98693 | 2968 ft | 133 kts | 165° |
| 2026-04-16 15:24 | -5.03536 | -38.98489 | 3097 ft | 137 kts | 165° |
| 2026-04-16 15:24 | -5.04469 | -38.98273 | 3217 ft | 138 kts | 164° |
| 2026-04-16 15:25 | -5.05397 | -38.98070 | 3334 ft | 135 kts | 165° |
| 2026-04-16 15:25 | -5.06316 | -38.97862 | 3455 ft | 137 kts | 164° |
| 2026-04-16 15:25 | -5.07246 | -38.97656 | 3574 ft | 136 kts | 165° |
| 2026-04-16 15:25 | -5.08168 | -38.97455 | 3692 ft | 135 kts | 165° |
| 2026-04-16 15:26 | -5.09085 | -38.97242 | 3810 ft | 135 kts | 164° |
| 2026-04-16 15:26 | -5.10003 | -38.97035 | 3934 ft | 135 kts | 164° |
| 2026-04-16 15:26 | -5.10924 | -38.96834 | 4051 ft | 135 kts | 164° |
| 2026-04-16 15:26 | -5.11848 | -38.96632 | 4176 ft | 137 kts | 164° |
| 2026-04-16 15:27 | -5.12774 | -38.96417 | 4301 ft | 137 kts | 164° |
| 2026-04-16 15:27 | -5.13691 | -38.96207 | 4418 ft | 137 kts | 164° |
| 2026-04-16 15:27 | -5.14619 | -38.95995 | 4545 ft | 137 kts | 164° |
| 2026-04-16 15:27 | -5.15549 | -38.95780 | 4676 ft | 138 kts | 164° |
| 2026-04-16 15:28 | -5.16486 | -38.95562 | 4788 ft | 138 kts | 164° |
| 2026-04-16 15:28 | -5.17419 | -38.95343 | 4907 ft | 137 kts | 164° |
| 2026-04-16 15:28 | -5.18349 | -38.95132 | 5028 ft | 136 kts | 164° |
| 2026-04-16 15:28 | -5.19269 | -38.94923 | 5145 ft | 135 kts | 165° |
| 2026-04-16 15:29 | -5.20185 | -38.94709 | 5256 ft | 134 kts | 164° |
| 2026-04-16 15:29 | -5.21066 | -38.94510 | 5531 ft | 122 kts | 164° |
| 2026-04-16 15:29 | -5.21842 | -38.94344 | 5846 ft | 109 kts | 164° |
| 2026-04-16 15:29 | -5.22546 | -38.94199 | 6129 ft | 100 kts | 164° |
| 2026-04-16 15:30 | -5.23210 | -38.94067 | 6355 ft | 95 kts | 164° |
| 2026-04-16 15:30 | -5.23883 | -38.93940 | 6450 ft | 108 kts | 165° |
| 2026-04-16 15:30 | -5.24688 | -38.93770 | 6468 ft | 127 kts | 164° |
| 2026-04-16 15:30 | -5.25602 | -38.93606 | 6474 ft | 141 kts | 176° |
| 2026-04-16 15:31 | -5.26574 | -38.93901 | 6476 ft | 150 kts | 197° |
| 2026-04-16 15:31 | -5.27571 | -38.94243 | 6491 ft | 152 kts | 191° |
| 2026-04-16 15:31 | -5.28616 | -38.94461 | 6498 ft | 154 kts | 187° |
| 2026-04-16 15:31 | -5.29674 | -38.94664 | 6501 ft | 155 kts | 187° |
| 2026-04-16 15:32 | -5.30738 | -38.94870 | 6506 ft | 156 kts | 187° |
| 2026-04-16 15:32 | -5.31807 | -38.95075 | 6510 ft | 157 kts | 187° |
| 2026-04-16 15:32 | -5.32866 | -38.95273 | 6506 ft | 156 kts | 187° |
| 2026-04-16 15:32 | -5.33939 | -38.95474 | 6508 ft | 156 kts | 187° |
| 2026-04-16 15:33 | -5.35011 | -38.95676 | 6504 ft | 157 kts | 187° |
| 2026-04-16 15:33 | -5.36081 | -38.95876 | 6507 ft | 156 kts | 187° |
| 2026-04-16 15:33 | -5.37151 | -38.96078 | 6507 ft | 156 kts | 187° |
| 2026-04-16 15:33 | -5.38221 | -38.96279 | 6512 ft | 156 kts | 187° |
| 2026-04-16 15:34 | -5.39290 | -38.96477 | 6512 ft | 156 kts | 187° |
| 2026-04-16 15:34 | -5.40362 | -38.96677 | 6513 ft | 157 kts | 187° |
| 2026-04-16 15:34 | -5.41437 | -38.96875 | 6511 ft | 156 kts | 187° |
| 2026-04-16 15:34 | -5.42507 | -38.97073 | 6510 ft | 156 kts | 187° |
| 2026-04-16 15:35 | -5.43560 | -38.97271 | 6509 ft | 156 kts | 187° |
| 2026-04-16 15:35 | -5.44631 | -38.97467 | 6510 ft | 156 kts | 187° |
| 2026-04-16 15:35 | -5.45702 | -38.97665 | 6505 ft | 157 kts | 187° |
| 2026-04-16 15:35 | -5.46777 | -38.97865 | 6508 ft | 157 kts | 187° |
| 2026-04-16 15:36 | -5.47849 | -38.98066 | 6506 ft | 156 kts | 187° |
| 2026-04-16 15:36 | -5.48915 | -38.98266 | 6509 ft | 156 kts | 187° |
| 2026-04-16 15:36 | -5.49984 | -38.98467 | 6506 ft | 156 kts | 187° |
| 2026-04-16 15:36 | -5.51053 | -38.98669 | 6508 ft | 156 kts | 187° |
| 2026-04-16 15:37 | -5.52109 | -38.98864 | 6509 ft | 156 kts | 186° |
| 2026-04-16 15:37 | -5.53175 | -38.99066 | 6506 ft | 156 kts | 187° |
| 2026-04-16 15:37 | -5.54245 | -38.99267 | 6510 ft | 157 kts | 187° |
| 2026-04-16 15:37 | -5.55320 | -38.99469 | 6512 ft | 158 kts | 187° |
| 2026-04-16 15:38 | -5.56412 | -38.99670 | 6516 ft | 161 kts | 187° |
| 2026-04-16 15:38 | -5.57512 | -38.99871 | 6505 ft | 160 kts | 186° |
| 2026-04-16 15:38 | -5.58604 | -39.00075 | 6511 ft | 159 kts | 187° |
| 2026-04-16 15:38 | -5.59685 | -39.00278 | 6511 ft | 157 kts | 187° |
| 2026-04-16 15:39 | -5.60763 | -39.00476 | 6507 ft | 157 kts | 186° |
| 2026-04-16 15:39 | -5.61843 | -39.00675 | 6512 ft | 158 kts | 187° |
| 2026-04-16 15:39 | -5.62906 | -39.00869 | 6511 ft | 157 kts | 187° |
| 2026-04-16 15:39 | -5.63980 | -39.01065 | 6512 ft | 157 kts | 187° |
| 2026-04-16 15:40 | -5.65053 | -39.01259 | 6510 ft | 156 kts | 186° |
| 2026-04-16 15:40 | -5.66124 | -39.01453 | 6513 ft | 157 kts | 187° |
| 2026-04-16 15:40 | -5.67200 | -39.01644 | 6510 ft | 157 kts | 186° |
| 2026-04-16 15:40 | -5.68274 | -39.01837 | 6508 ft | 156 kts | 187° |
| 2026-04-16 15:41 | -5.69348 | -39.02033 | 6511 ft | 157 kts | 187° |
| 2026-04-16 15:41 | -5.70428 | -39.02226 | 6509 ft | 157 kts | 186° |
| 2026-04-16 15:41 | -5.71500 | -39.02420 | 6511 ft | 157 kts | 186° |
| 2026-04-16 15:41 | -5.72573 | -39.02614 | 6508 ft | 156 kts | 187° |
| 2026-04-16 15:42 | -5.73641 | -39.02806 | 6504 ft | 156 kts | 186° |
| 2026-04-16 15:42 | -5.74714 | -39.03000 | 6507 ft | 157 kts | 187° |
| 2026-04-16 15:42 | -5.75774 | -39.03188 | 6505 ft | 156 kts | 186° |
| 2026-04-16 15:42 | -5.76848 | -39.03379 | 6507 ft | 156 kts | 186° |
| 2026-04-16 15:43 | -5.77920 | -39.03571 | 6511 ft | 156 kts | 186° |
| 2026-04-16 15:43 | -5.78992 | -39.03766 | 6506 ft | 157 kts | 186° |
| 2026-04-16 15:43 | -5.80064 | -39.03962 | 6512 ft | 157 kts | 187° |
| 2026-04-16 15:43 | -5.81138 | -39.04156 | 6509 ft | 157 kts | 186° |
| 2026-04-16 15:44 | -5.82216 | -39.04353 | 6512 ft | 157 kts | 187° |
| 2026-04-16 15:44 | -5.83292 | -39.04544 | 6512 ft | 157 kts | 186° |
| 2026-04-16 15:44 | -5.84369 | -39.04737 | 6512 ft | 158 kts | 186° |
| 2026-04-16 15:44 | -5.85450 | -39.04933 | 6507 ft | 157 kts | 186° |
| 2026-04-16 15:45 | -5.86528 | -39.05124 | 6507 ft | 157 kts | 186° |
| 2026-04-16 15:45 | -5.87590 | -39.05313 | 6505 ft | 157 kts | 186° |
| 2026-04-16 15:45 | -5.88666 | -39.05504 | 6509 ft | 158 kts | 186° |
| 2026-04-16 15:45 | -5.89749 | -39.05697 | 6506 ft | 158 kts | 186° |
| 2026-04-16 15:46 | -5.90829 | -39.05892 | 6505 ft | 157 kts | 186° |
| 2026-04-16 15:46 | -5.91907 | -39.06083 | 6506 ft | 157 kts | 186° |
| 2026-04-16 15:46 | -5.92615 | -39.06212 | 6506 ft | 156 kts | 186° |
| 2026-04-16 15:46 | -5.93682 | -39.06406 | 6506 ft | 156 kts | 186° |
| 2026-04-16 15:47 | -5.94748 | -39.06594 | 6510 ft | 156 kts | 186° |
| 2026-04-16 15:47 | -5.95820 | -39.06781 | 6505 ft | 156 kts | 186° |
| 2026-04-16 15:47 | -5.96888 | -39.06966 | 6506 ft | 155 kts | 186° |
| 2026-04-16 15:47 | -5.97953 | -39.07150 | 6502 ft | 155 kts | 186° |
| 2026-04-16 15:48 | -5.99021 | -39.07331 | 6510 ft | 157 kts | 186° |
| 2026-04-16 15:48 | -6.00098 | -39.07516 | 6506 ft | 157 kts | 186° |
| 2026-04-16 15:48 | -6.01176 | -39.07701 | 6509 ft | 157 kts | 186° |
| 2026-04-16 15:48 | -6.02258 | -39.07887 | 6508 ft | 158 kts | 186° |
| 2026-04-16 15:49 | -6.03342 | -39.08073 | 6509 ft | 158 kts | 186° |
| 2026-04-16 15:49 | -6.04422 | -39.08258 | 6511 ft | 157 kts | 186° |
| 2026-04-16 15:49 | -6.05504 | -39.08442 | 6512 ft | 157 kts | 186° |
| 2026-04-16 15:49 | -6.06572 | -39.08620 | 6518 ft | 158 kts | 186° |
| 2026-04-16 15:50 | -6.07666 | -39.08798 | 6518 ft | 161 kts | 186° |
| 2026-04-16 15:50 | -6.08774 | -39.08981 | 6515 ft | 162 kts | 186° |
| 2026-04-16 15:50 | -6.09880 | -39.09163 | 6514 ft | 160 kts | 186° |
| 2026-04-16 15:50 | -6.10978 | -39.09341 | 6515 ft | 159 kts | 186° |
| 2026-04-16 15:51 | -6.12068 | -39.09521 | 6510 ft | 158 kts | 186° |
| 2026-04-16 15:51 | -6.13154 | -39.09703 | 6510 ft | 158 kts | 186° |
| 2026-04-16 15:51 | -6.14238 | -39.09885 | 6511 ft | 158 kts | 186° |
| 2026-04-16 15:51 | -6.15319 | -39.10066 | 6508 ft | 157 kts | 186° |
| 2026-04-16 15:52 | -6.16395 | -39.10249 | 6509 ft | 157 kts | 186° |
| 2026-04-16 15:52 | -6.17448 | -39.10546 | 6494 ft | 159 kts | 200° |
| 2026-04-16 15:52 | -6.18447 | -39.11022 | 6499 ft | 158 kts | 200° |
| 2026-04-16 15:52 | -6.19510 | -39.11079 | 6467 ft | 155 kts | 169° |
| 2026-04-16 15:53 | -6.20581 | -39.10955 | 6464 ft | 155 kts | 172° |
| 2026-04-16 15:53 | -6.21655 | -39.10858 | 6468 ft | 156 kts | 172° |
| 2026-04-16 15:53 | -6.22732 | -39.10759 | 6470 ft | 155 kts | 172° |
| 2026-04-16 15:53 | -6.23803 | -39.10663 | 6469 ft | 154 kts | 172° |
| 2026-04-16 15:54 | -6.24870 | -39.10566 | 6469 ft | 154 kts | 172° |
| 2026-04-16 15:54 | -6.25936 | -39.10470 | 6466 ft | 153 kts | 172° |
| 2026-04-16 15:54 | -6.27000 | -39.10374 | 6468 ft | 153 kts | 172° |
| 2026-04-16 15:54 | -6.28061 | -39.10275 | 6465 ft | 153 kts | 172° |
| 2026-04-16 15:55 | -6.29122 | -39.10179 | 6466 ft | 153 kts | 172° |
| 2026-04-16 15:55 | -6.30168 | -39.10084 | 6467 ft | 152 kts | 172° |
| 2026-04-16 15:55 | -6.31223 | -39.09986 | 6468 ft | 152 kts | 172° |
| 2026-04-16 15:55 | -6.32283 | -39.09886 | 6464 ft | 153 kts | 171° |
| 2026-04-16 15:56 | -6.33347 | -39.09789 | 6461 ft | 154 kts | 172° |
| 2026-04-16 15:56 | -6.34408 | -39.09688 | 6466 ft | 153 kts | 171° |
| 2026-04-16 15:56 | -6.35474 | -39.09591 | 6467 ft | 154 kts | 172° |
| 2026-04-16 15:56 | -6.36541 | -39.09494 | 6469 ft | 155 kts | 171° |
| 2026-04-16 15:57 | -6.37617 | -39.09397 | 6472 ft | 155 kts | 172° |
| 2026-04-16 15:57 | -6.38695 | -39.09295 | 6472 ft | 156 kts | 171° |
| 2026-04-16 15:57 | -6.39774 | -39.09194 | 6470 ft | 155 kts | 172° |
| 2026-04-16 15:57 | -6.40844 | -39.09094 | 6469 ft | 154 kts | 172° |
| 2026-04-16 15:58 | -6.41914 | -39.08991 | 6467 ft | 155 kts | 172° |
| 2026-04-16 15:58 | -6.42981 | -39.08886 | 6468 ft | 153 kts | 172° |
| 2026-04-16 15:58 | -6.44044 | -39.08782 | 6463 ft | 153 kts | 172° |
| 2026-04-16 15:58 | -6.45090 | -39.08678 | 6470 ft | 153 kts | 171° |
| 2026-04-16 15:59 | -6.47232 | -39.08472 | 6464 ft | 154 kts | 172° |
| 2026-04-16 15:59 | -6.48300 | -39.08366 | 6467 ft | 154 kts | 171° |
| 2026-04-16 15:59 | -6.49362 | -39.08261 | 6464 ft | 153 kts | 171° |
| 2026-04-16 16:00 | -6.50417 | -39.08160 | 6460 ft | 152 kts | 172° |
| 2026-04-16 16:00 | -6.51470 | -39.08058 | 6461 ft | 152 kts | 172° |
| 2026-04-16 16:00 | -6.52518 | -39.07954 | 6458 ft | 151 kts | 171° |
| 2026-04-16 16:00 | -6.53566 | -39.07849 | 6459 ft | 151 kts | 171° |
| 2026-04-16 16:01 | -6.54617 | -39.07747 | 6466 ft | 153 kts | 171° |
| 2026-04-16 16:01 | -6.55685 | -39.07643 | 6473 ft | 156 kts | 172° |
| 2026-04-16 16:01 | -6.56777 | -39.07533 | 6474 ft | 159 kts | 171° |
| 2026-04-16 16:01 | -6.57868 | -39.07423 | 6464 ft | 156 kts | 171° |
| 2026-04-16 16:02 | -6.58941 | -39.07318 | 6468 ft | 154 kts | 171° |
| 2026-04-16 16:02 | -6.60012 | -39.07216 | 6463 ft | 154 kts | 171° |
| 2026-04-16 16:02 | -6.61077 | -39.07117 | 6465 ft | 154 kts | 172° |
| 2026-04-16 16:02 | -6.62136 | -39.07012 | 6466 ft | 155 kts | 171° |
| 2026-04-16 16:03 | -6.63208 | -39.06903 | 6470 ft | 156 kts | 171° |
| 2026-04-16 16:03 | -6.64288 | -39.06791 | 6465 ft | 156 kts | 171° |
| 2026-04-16 16:03 | -6.65362 | -39.06683 | 6472 ft | 154 kts | 171° |
| 2026-04-16 16:03 | -6.66432 | -39.06576 | 6463 ft | 155 kts | 171° |
| 2026-04-16 16:04 | -6.67503 | -39.06468 | 6461 ft | 155 kts | 171° |
| 2026-04-16 16:04 | -6.68576 | -39.06364 | 6464 ft | 154 kts | 172° |
| 2026-04-16 16:04 | -6.69645 | -39.06263 | 6463 ft | 154 kts | 171° |
| 2026-04-16 16:04 | -6.70718 | -39.06157 | 6461 ft | 155 kts | 171° |
| 2026-04-16 16:05 | -6.71788 | -39.06053 | 6468 ft | 154 kts | 171° |
| 2026-04-16 16:05 | -6.72850 | -39.05947 | 6467 ft | 153 kts | 171° |
| 2026-04-16 16:05 | -6.73910 | -39.05837 | 6466 ft | 153 kts | 171° |
| 2026-04-16 16:05 | -6.74971 | -39.05729 | 6467 ft | 152 kts | 171° |
| 2026-04-16 16:06 | -6.76028 | -39.05620 | 6469 ft | 153 kts | 171° |
| 2026-04-16 16:06 | -6.77090 | -39.05512 | 6469 ft | 153 kts | 171° |
| 2026-04-16 16:06 | -6.78136 | -39.05401 | 6466 ft | 153 kts | 171° |
| 2026-04-16 16:06 | -6.79198 | -39.05294 | 6468 ft | 153 kts | 171° |
| 2026-04-16 16:07 | -6.80259 | -39.05185 | 6469 ft | 153 kts | 171° |
| 2026-04-16 16:07 | -6.81319 | -39.05081 | 6471 ft | 153 kts | 171° |
| 2026-04-16 16:07 | -6.82381 | -39.04971 | 6473 ft | 154 kts | 171° |
| 2026-04-16 16:07 | -6.83448 | -39.04856 | 6474 ft | 155 kts | 171° |
| 2026-04-16 16:08 | -6.84519 | -39.04744 | 6471 ft | 154 kts | 171° |
| 2026-04-16 16:08 | -6.85587 | -39.04632 | 6472 ft | 155 kts | 171° |
| 2026-04-16 16:08 | -6.86659 | -39.04517 | 6468 ft | 154 kts | 171° |
| 2026-04-16 16:08 | -6.87729 | -39.04409 | 6474 ft | 155 kts | 171° |
| 2026-04-16 16:09 | -6.88800 | -39.04297 | 6470 ft | 155 kts | 171° |
| 2026-04-16 16:09 | -6.89868 | -39.04191 | 6471 ft | 154 kts | 171° |
| 2026-04-16 16:09 | -6.90942 | -39.04078 | 6469 ft | 155 kts | 171° |
| 2026-04-16 16:09 | -6.91997 | -39.03971 | 6471 ft | 154 kts | 171° |
| 2026-04-16 16:10 | -6.93065 | -39.03858 | 6470 ft | 154 kts | 171° |
| 2026-04-16 16:10 | -6.94133 | -39.03743 | 6469 ft | 154 kts | 171° |
| 2026-04-16 16:10 | -6.95191 | -39.03625 | 6474 ft | 153 kts | 171° |
| 2026-04-16 16:10 | -6.96253 | -39.03510 | 6475 ft | 154 kts | 171° |
| 2026-04-16 16:11 | -6.97313 | -39.03392 | 6479 ft | 153 kts | 171° |
| 2026-04-16 16:11 | -6.98369 | -39.03275 | 6484 ft | 152 kts | 171° |
| 2026-04-16 16:11 | -6.99413 | -39.03164 | 6483 ft | 153 kts | 171° |
| 2026-04-16 16:11 | -7.00472 | -39.03045 | 6484 ft | 153 kts | 171° |
| 2026-04-16 16:12 | -7.01517 | -39.02929 | 6490 ft | 154 kts | 171° |
| 2026-04-16 16:12 | -7.02580 | -39.02814 | 6490 ft | 153 kts | 171° |
| 2026-04-16 16:12 | -7.03637 | -39.02695 | 6495 ft | 152 kts | 171° |
| 2026-04-16 16:12 | -7.04696 | -39.02578 | 6496 ft | 153 kts | 171° |
| 2026-04-16 16:13 | -7.05751 | -39.02459 | 6498 ft | 153 kts | 171° |
| 2026-04-16 16:13 | -7.06807 | -39.02340 | 6500 ft | 153 kts | 171° |
| 2026-04-16 16:13 | -7.07863 | -39.02223 | 6504 ft | 153 kts | 170° |
| 2026-04-16 16:13 | -7.08928 | -39.02107 | 6491 ft | 154 kts | 171° |
| 2026-04-16 16:14 | -7.09998 | -39.01989 | 6494 ft | 155 kts | 170° |
| 2026-04-16 16:14 | -7.11072 | -39.01875 | 6491 ft | 155 kts | 171° |
| 2026-04-16 16:14 | -7.12142 | -39.01757 | 6519 ft | 155 kts | 170° |
| 2026-04-16 16:14 | -7.13220 | -39.01644 | 6496 ft | 155 kts | 171° |
| 2026-04-16 16:15 | -7.14277 | -39.01533 | 6498 ft | 154 kts | 171° |
| 2026-04-16 16:15 | -7.15346 | -39.01412 | 6503 ft | 156 kts | 171° |
| 2026-04-16 16:15 | -7.16424 | -39.01295 | 6514 ft | 156 kts | 170° |
| 2026-04-16 16:15 | -7.17513 | -39.01182 | 6505 ft | 156 kts | 171° |
| 2026-04-16 16:16 | -7.18588 | -39.01064 | 6503 ft | 155 kts | 171° |
| 2026-04-16 16:16 | -7.19664 | -39.00948 | 6513 ft | 157 kts | 171° |
| 2026-04-16 16:16 | -7.20749 | -39.00833 | 6503 ft | 155 kts | 171° |
| 2026-04-16 16:16 | -7.21817 | -39.00718 | 6503 ft | 154 kts | 171° |
| 2026-04-16 16:17 | -7.22888 | -39.00605 | 6507 ft | 156 kts | 171° |
| 2026-04-16 16:17 | -7.23973 | -39.00483 | 6501 ft | 156 kts | 171° |
| 2026-04-16 16:17 | -7.25051 | -39.00357 | 6509 ft | 156 kts | 171° |
| 2026-04-16 16:17 | -7.26134 | -39.00230 | 6509 ft | 157 kts | 171° |
| 2026-04-16 16:18 | -7.27216 | -39.00106 | 6505 ft | 155 kts | 171° |
| 2026-04-16 16:18 | -7.28289 | -38.99982 | 6501 ft | 155 kts | 170° |
| 2026-04-16 16:18 | -7.29360 | -38.99855 | 6503 ft | 154 kts | 171° |
| 2026-04-16 16:18 | -7.30405 | -38.99729 | 6500 ft | 153 kts | 170° |
| 2026-04-16 16:19 | -7.31459 | -38.99607 | 6501 ft | 152 kts | 170° |
| 2026-04-16 16:19 | -7.32512 | -38.99485 | 6499 ft | 152 kts | 170° |
| 2026-04-16 16:19 | -7.33567 | -38.99358 | 6498 ft | 153 kts | 171° |
| 2026-04-16 16:19 | -7.34626 | -38.99234 | 6494 ft | 153 kts | 171° |
| 2026-04-16 16:20 | -7.35680 | -38.99107 | 6497 ft | 152 kts | 171° |
| 2026-04-16 16:20 | -7.36737 | -38.98982 | 6497 ft | 152 kts | 171° |
| 2026-04-16 16:20 | -7.37789 | -38.98861 | 6494 ft | 152 kts | 170° |
| 2026-04-16 16:20 | -7.38823 | -38.98737 | 6493 ft | 151 kts | 170° |
| 2026-04-16 16:21 | -7.39872 | -38.98613 | 6496 ft | 152 kts | 170° |
| 2026-04-16 16:21 | -7.40931 | -38.98489 | 6494 ft | 153 kts | 170° |
| 2026-04-16 16:21 | -7.41990 | -38.98370 | 6490 ft | 153 kts | 171° |
| 2026-04-16 16:21 | -7.43053 | -38.98247 | 6494 ft | 154 kts | 170° |
| 2026-04-16 16:22 | -7.44117 | -38.98126 | 6493 ft | 154 kts | 172° |
| 2026-04-16 16:22 | -7.45205 | -38.98198 | 6444 ft | 158 kts | 184° |
| 2026-04-16 16:22 | -7.46310 | -38.98321 | 6377 ft | 161 kts | 183° |
| 2026-04-16 16:22 | -7.47421 | -38.98445 | 6305 ft | 161 kts | 183° |
| 2026-04-16 16:23 | -7.48535 | -38.98570 | 6239 ft | 162 kts | 183° |
| 2026-04-16 16:23 | -7.49656 | -38.98693 | 6162 ft | 162 kts | 183° |
| 2026-04-16 16:23 | -7.50774 | -38.98814 | 6088 ft | 161 kts | 183° |
| 2026-04-16 16:23 | -7.51885 | -38.98990 | 6010 ft | 163 kts | 191° |
| 2026-04-16 16:24 | -7.52950 | -38.99335 | 5934 ft | 163 kts | 195° |
| 2026-04-16 16:24 | -7.54025 | -38.99694 | 5861 ft | 162 kts | 195° |
| 2026-04-16 16:24 | -7.55093 | -39.00052 | 5791 ft | 161 kts | 195° |
| 2026-04-16 16:24 | -7.56160 | -39.00409 | 5721 ft | 162 kts | 195° |
| 2026-04-16 16:25 | -7.57229 | -39.00766 | 5649 ft | 162 kts | 194° |
| 2026-04-16 16:25 | -7.58304 | -39.01131 | 5577 ft | 163 kts | 195° |
| 2026-04-16 16:25 | -7.59385 | -39.01497 | 5497 ft | 164 kts | 195° |
| 2026-04-16 16:25 | -7.60467 | -39.01867 | 5429 ft | 165 kts | 195° |
| 2026-04-16 16:26 | -7.61546 | -39.02234 | 5365 ft | 164 kts | 195° |
| 2026-04-16 16:26 | -7.62638 | -39.02597 | 5287 ft | 165 kts | 194° |
| 2026-04-16 16:26 | -7.63730 | -39.02965 | 5216 ft | 165 kts | 195° |
| 2026-04-16 16:26 | -7.64804 | -39.03322 | 5143 ft | 164 kts | 195° |
| 2026-04-16 16:27 | -7.65888 | -39.03676 | 5074 ft | 164 kts | 195° |
| 2026-04-16 16:27 | -7.66972 | -39.04030 | 4990 ft | 162 kts | 195° |
| 2026-04-16 16:27 | -7.68041 | -39.04383 | 4926 ft | 161 kts | 195° |
| 2026-04-16 16:27 | -7.69112 | -39.04727 | 4857 ft | 161 kts | 195° |
| 2026-04-16 16:28 | -7.70183 | -39.05077 | 4784 ft | 162 kts | 195° |
| 2026-04-16 16:28 | -7.71245 | -39.05423 | 4717 ft | 162 kts | 195° |
| 2026-04-16 16:28 | -7.72322 | -39.05770 | 4649 ft | 162 kts | 194° |
| 2026-04-16 16:28 | -7.73400 | -39.06123 | 4575 ft | 163 kts | 194° |
| 2026-04-16 16:29 | -7.74476 | -39.06477 | 4494 ft | 163 kts | 195° |
| 2026-04-16 16:29 | -7.75561 | -39.06824 | 4423 ft | 164 kts | 195° |
| 2026-04-16 16:29 | -7.76647 | -39.07176 | 4352 ft | 165 kts | 194° |
| 2026-04-16 16:29 | -7.77742 | -39.07533 | 4279 ft | 165 kts | 195° |
| 2026-04-16 16:30 | -7.78838 | -39.07892 | 4201 ft | 165 kts | 195° |
| 2026-04-16 16:30 | -7.79939 | -39.08248 | 4129 ft | 166 kts | 195° |
| 2026-04-16 16:30 | -7.81038 | -39.08603 | 4056 ft | 166 kts | 194° |
| 2026-04-16 16:30 | -7.82129 | -39.08956 | 3984 ft | 167 kts | 195° |
| 2026-04-16 16:31 | -7.83228 | -39.09315 | 3907 ft | 165 kts | 193° |
| 2026-04-16 16:31 | -7.84327 | -39.09675 | 3841 ft | 166 kts | 195° |
| 2026-04-16 16:31 | -7.85415 | -39.10039 | 3757 ft | 163 kts | 194° |
| 2026-04-16 16:31 | -7.86490 | -39.10395 | 3686 ft | 161 kts | 195° |
| 2026-04-16 16:32 | -7.87558 | -39.10742 | 3625 ft | 162 kts | 195° |
| 2026-04-16 16:32 | -7.88643 | -39.11093 | 3555 ft | 164 kts | 194° |
| 2026-04-16 16:32 | -7.89723 | -39.11439 | 3474 ft | 161 kts | 195° |
| 2026-04-16 16:32 | -7.90431 | -39.11663 | 3426 ft | 160 kts | 194° |
| 2026-04-16 16:33 | -7.91866 | -39.12075 | 3316 ft | 158 kts | 192° |
| 2026-04-16 16:33 | -7.92561 | -39.12272 | 3281 ft | 157 kts | 194° |
| 2026-04-16 16:33 | -7.93972 | -39.12652 | 3187 ft | 159 kts | 193° |
| 2026-04-16 16:33 | -7.95041 | -39.12950 | 3123 ft | 160 kts | 193° |
| 2026-04-16 16:34 | -7.96130 | -39.13252 | 3049 ft | 163 kts | 192° |
| 2026-04-16 16:34 | -7.96858 | -39.13449 | 2994 ft | 164 kts | 193° |
| 2026-04-16 16:34 | -7.97963 | -39.13749 | 2920 ft | 164 kts | 191° |
| 2026-04-16 16:34 | -7.99054 | -39.14071 | 2855 ft | 163 kts | 192° |
| 2026-04-16 16:35 | -8.00157 | -39.14392 | 2790 ft | 163 kts | 194° |
| 2026-04-16 16:35 | -8.01237 | -39.14646 | 2771 ft | 157 kts | 179° |
| 2026-04-16 16:35 | -8.02190 | -39.14191 | 2735 ft | 155 kts | 136° |
| 2026-04-16 16:35 | -8.03155 | -39.13773 | 2679 ft | 158 kts | 178° |
| 2026-04-16 16:36 | -8.04130 | -39.14286 | 2639 ft | 166 kts | 223° |
| 2026-04-16 16:36 | -8.05088 | -39.14840 | 2590 ft | 159 kts | 185° |
| 2026-04-16 16:36 | -8.06079 | -39.14459 | 2554 ft | 158 kts | 138° |
| 2026-04-16 16:36 | -8.06825 | -39.13666 | 2548 ft | 157 kts | 133° |
| 2026-04-16 16:37 | -8.07576 | -39.12874 | 2552 ft | 156 kts | 133° |
| 2026-04-16 16:37 | -8.08314 | -39.12093 | 2545 ft | 151 kts | 134° |
| 2026-04-16 16:37 | -8.08721 | -39.11310 | 2472 ft | 114 kts | 94° |
| 2026-04-16 16:37 | -8.08295 | -39.10773 | 2353 ft | 101 kts | 18° |
| 2026-04-16 16:38 | -8.07665 | -39.11002 | 2281 ft | 93 kts | 326° |
| 2026-04-16 16:38 | -8.07214 | -39.11423 | 2197 ft | 90 kts | 313° |
| 2026-04-16 16:38 | -8.06729 | -39.11853 | 2019 ft | 95 kts | 325° |
| 2026-04-16 16:38 | -8.06176 | -39.12235 | 1845 ft | 98 kts | 327° |
| 2026-04-16 16:39 | -8.05638 | -39.12627 | 1690 ft | 94 kts | 324° |
| 2026-04-16 16:39 | -8.05122 | -39.13007 | 1564 ft | 88 kts | 324° |
| 2026-04-16 16:39 | -8.04702 | -39.13314 | 1540 ft | 51 kts | 324° |
| 2026-04-16 16:39 | -8.04503 | -39.13467 | 1547 ft | 30 kts | 298° |
| 2026-04-16 16:40 | -8.04517 | -39.13539 | 1544 ft | 0 kts | 94° |